createdAt,value
2018-06-29T00:00:45.256Z,2.20
2018-06-29T00:01:45.283Z,2.20
2018-06-29T00:02:45.302Z,1.90
2018-06-29T00:03:45.325Z,2.10
2018-06-29T00:04:45.352Z,2.10
2018-06-29T00:05:45.376Z,1.90
2018-06-29T00:06:45.396Z,2.10
2018-06-29T00:07:45.420Z,2.00
2018-06-29T00:08:45.446Z,2.70
2018-06-29T00:09:45.469Z,1.80
2018-06-29T00:10:45.491Z,2.10
2018-06-29T00:11:45.516Z,2.00
2018-06-29T00:12:45.537Z,1.80
2018-06-29T00:13:45.559Z,2.50
2018-06-29T00:14:45.587Z,2.50
2018-06-29T00:15:45.606Z,2.40
2018-06-29T00:16:45.630Z,2.70
2018-06-29T00:17:45.653Z,2.20
2018-06-29T00:18:45.675Z,2.00
2018-06-29T00:19:45.699Z,2.00
2018-06-29T00:20:45.725Z,2.50
2018-06-29T00:21:45.749Z,2.20
2018-06-29T00:22:45.772Z,2.50
2018-06-29T00:23:45.791Z,2.10
2018-06-29T00:24:45.818Z,2.00
2018-06-29T00:25:45.842Z,2.00
2018-06-29T00:26:46.046Z,2.10
2018-06-29T00:27:45.892Z,2.00
2018-06-29T00:28:46.077Z,1.90
2018-06-29T00:29:45.931Z,2.30
2018-06-29T00:30:45.954Z,2.20
2018-06-29T00:31:45.979Z,3.00
2018-06-29T00:32:46.001Z,2.50
2018-06-29T00:33:46.027Z,1.90
2018-06-29T00:34:46.050Z,2.30
2018-06-29T00:35:46.070Z,2.00
2018-06-29T00:36:46.097Z,2.20
2018-06-29T00:37:46.119Z,2.60
2018-06-29T00:38:46.143Z,2.20
2018-06-29T00:39:46.165Z,2.50
2018-06-29T00:40:46.189Z,2.40
2018-06-29T00:41:46.213Z,2.50
2018-06-29T00:42:46.231Z,2.40
2018-06-29T00:43:46.257Z,2.30
2018-06-29T00:44:46.278Z,2.90
2018-06-29T00:45:46.317Z,2.20
2018-06-29T00:46:46.324Z,2.30
2018-06-29T00:47:46.349Z,3.00
2018-06-29T00:48:46.370Z,2.60
2018-06-29T00:49:46.393Z,2.00
2018-06-29T00:50:46.418Z,2.00
2018-06-29T00:51:46.442Z,2.40
2018-06-29T00:52:46.462Z,2.80
2018-06-29T00:53:46.488Z,2.00
2018-06-29T00:54:46.508Z,1.90
2018-06-29T00:55:46.535Z,2.20
2018-06-29T00:56:46.560Z,2.00
2018-06-29T00:57:46.578Z,2.30
2018-06-29T00:58:46.600Z,2.30
2018-06-29T00:59:46.625Z,2.00
2018-06-29T01:00:46.648Z,2.30
2018-06-29T01:01:46.673Z,2.50
2018-06-29T01:02:46.691Z,2.00
2018-06-29T01:03:46.716Z,2.40
2018-06-29T01:04:46.740Z,2.20
2018-06-29T01:05:46.763Z,2.10
2018-06-29T01:06:46.784Z,2.20
2018-06-29T01:07:46.808Z,2.10
2018-06-29T01:08:46.832Z,3.10
2018-06-29T01:09:46.855Z,2.10
2018-06-29T01:10:46.881Z,2.60
2018-06-29T01:11:46.900Z,2.30
2018-06-29T01:12:46.924Z,2.00
2018-06-29T01:13:46.948Z,2.40
2018-06-29T01:14:46.967Z,2.50
2018-06-29T01:15:46.992Z,2.20
2018-06-29T01:16:47.016Z,2.30
2018-06-29T01:17:47.034Z,2.00
2018-06-29T01:18:47.060Z,2.20
2018-06-29T01:19:47.082Z,2.60
2018-06-29T01:20:47.104Z,2.30
2018-06-29T01:21:47.125Z,2.20
2018-06-29T01:22:47.149Z,2.00
2018-06-29T01:23:47.170Z,2.70
2018-06-29T01:24:47.194Z,2.00
2018-06-29T01:25:47.217Z,2.40
2018-06-29T01:26:47.238Z,3.60
2018-06-29T01:27:47.264Z,2.00
2018-06-29T01:28:47.291Z,2.20
2018-06-29T01:29:47.306Z,2.30
2018-06-29T01:30:47.330Z,2.60
2018-06-29T01:31:47.351Z,2.30
2018-06-29T01:32:47.376Z,1.90
2018-06-29T01:33:47.403Z,2.40
2018-06-29T01:34:47.419Z,2.20
2018-06-29T01:35:47.442Z,2.10
2018-06-29T01:36:47.468Z,2.20
2018-06-29T01:37:47.487Z,2.10
2018-06-29T01:38:47.512Z,2.50
2018-06-29T01:39:47.538Z,2.70
2018-06-29T01:40:47.557Z,2.60
2018-06-29T01:41:47.581Z,1.80
2018-06-29T01:42:47.600Z,2.50
2018-06-29T01:43:47.624Z,2.40
2018-06-29T01:44:47.648Z,3.10
2018-06-29T01:45:47.671Z,2.30
2018-06-29T01:46:47.692Z,3.10
2018-06-29T01:47:47.712Z,2.60
2018-06-29T01:48:47.737Z,2.50
2018-06-29T01:49:47.758Z,2.40
2018-06-29T01:50:47.780Z,2.80
2018-06-29T01:51:47.804Z,2.80
2018-06-29T01:52:47.829Z,2.50
2018-06-29T01:53:47.848Z,2.90
2018-06-29T01:54:47.875Z,2.70
2018-06-29T01:55:47.892Z,2.40
2018-06-29T01:56:47.917Z,2.30
2018-06-29T01:57:47.942Z,2.50
2018-06-29T01:58:47.959Z,2.30
2018-06-29T01:59:47.985Z,2.10
2018-06-29T02:00:48.005Z,2.50
2018-06-29T02:01:48.028Z,3.30
2018-06-29T02:02:48.050Z,2.60
2018-06-29T02:03:48.072Z,2.30
2018-06-29T02:04:48.100Z,2.00
2018-06-29T02:05:48.117Z,2.20
2018-06-29T02:06:48.141Z,2.50
2018-06-29T02:07:48.164Z,2.50
2018-06-29T02:08:48.187Z,2.20
2018-06-29T02:09:48.208Z,2.40
2018-06-29T02:10:48.231Z,2.60
2018-06-29T02:11:48.251Z,2.60
2018-06-29T02:12:48.273Z,2.50
2018-06-29T02:13:48.297Z,2.40
2018-06-29T02:14:48.320Z,2.80
2018-06-29T02:15:48.344Z,2.30
2018-06-29T02:16:48.363Z,3.00
2018-06-29T02:17:48.388Z,2.80
2018-06-29T02:18:48.414Z,2.60
2018-06-29T02:19:48.431Z,2.80
2018-06-29T02:20:48.453Z,3.00
2018-06-29T02:21:48.477Z,2.60
2018-06-29T02:22:48.497Z,3.40
2018-06-29T02:23:48.521Z,3.00
2018-06-29T02:24:48.541Z,2.90
2018-06-29T02:25:48.564Z,2.90
2018-06-29T02:26:48.584Z,2.60
2018-06-29T02:27:48.607Z,3.30
2018-06-29T02:28:48.629Z,3.40
2018-06-29T02:29:48.651Z,3.10
2018-06-29T02:30:48.796Z,3.00
2018-06-29T02:31:48.696Z,3.20
2018-06-29T02:32:48.720Z,3.40
2018-06-29T02:33:48.742Z,3.40
2018-06-29T02:34:48.762Z,3.40
2018-06-29T02:35:48.791Z,3.40
2018-06-29T02:36:48.809Z,3.10
2018-06-29T02:37:48.831Z,2.80
2018-06-29T02:38:48.852Z,3.30
2018-06-29T02:39:48.872Z,3.30
2018-06-29T02:40:48.899Z,3.30
2018-06-29T02:41:48.917Z,2.70
2018-06-29T02:42:48.941Z,3.30
2018-06-29T02:43:48.963Z,3.30
2018-06-29T02:44:48.985Z,3.20
2018-06-29T02:45:49.009Z,3.40
2018-06-29T02:46:49.034Z,3.20
2018-06-29T02:47:49.055Z,3.60
2018-06-29T02:48:49.075Z,4.30
2018-06-29T02:49:49.093Z,3.30
2018-06-29T02:50:49.117Z,3.00
2018-06-29T02:51:49.192Z,3.10
2018-06-29T02:52:49.162Z,3.00
2018-06-29T02:53:49.185Z,4.10
2018-06-29T02:54:49.203Z,2.90
2018-06-29T02:55:49.233Z,3.50
2018-06-29T02:56:49.251Z,3.40
2018-06-29T02:57:49.269Z,3.70
2018-06-29T02:58:49.294Z,3.40
2018-06-29T02:59:49.316Z,3.70
2018-06-29T03:00:49.339Z,3.70
2018-06-29T03:01:49.358Z,3.30
2018-06-29T03:02:49.379Z,3.60
2018-06-29T03:03:49.401Z,3.20
2018-06-29T03:04:49.425Z,4.20
2018-06-29T03:05:49.448Z,3.40
2018-06-29T03:06:49.475Z,3.20
2018-06-29T03:07:49.491Z,3.30
2018-06-29T03:08:49.511Z,4.10
2018-06-29T03:09:49.536Z,3.00
2018-06-29T03:10:49.576Z,3.90
2018-06-29T03:11:49.576Z,3.50
2018-06-29T03:12:49.602Z,4.60
2018-06-29T03:13:49.620Z,3.30
2018-06-29T03:14:49.644Z,3.50
2018-06-29T03:15:49.665Z,3.30
2018-06-29T03:16:49.685Z,4.30
2018-06-29T03:17:49.708Z,3.60
2018-06-29T03:18:49.733Z,3.80
2018-06-29T03:19:49.757Z,3.70
2018-06-29T03:20:49.773Z,4.60
2018-06-29T03:21:49.797Z,4.00
2018-06-29T03:22:49.819Z,3.60
2018-06-29T03:23:49.840Z,3.80
2018-06-29T03:24:49.858Z,3.80
2018-06-29T03:25:49.885Z,3.60
2018-06-29T03:26:49.905Z,4.00
2018-06-29T03:27:49.924Z,4.20
2018-06-29T03:28:49.949Z,4.00
2018-06-29T03:29:49.968Z,4.20
2018-06-29T03:30:49.989Z,3.80
2018-06-29T03:31:50.013Z,4.20
2018-06-29T03:32:50.033Z,3.60
2018-06-29T03:33:50.060Z,3.60
2018-06-29T03:34:50.075Z,3.90
2018-06-29T03:35:50.100Z,3.50
2018-06-29T03:36:50.120Z,4.60
2018-06-29T03:37:50.142Z,4.20
2018-06-29T03:38:50.167Z,3.90
2018-06-29T03:39:50.184Z,3.90
2018-06-29T03:40:50.208Z,4.20
2018-06-29T03:41:50.228Z,4.10
2018-06-29T03:42:50.253Z,4.40
2018-06-29T03:43:50.270Z,3.80
2018-06-29T03:44:50.294Z,4.00
2018-06-29T03:45:50.317Z,4.00
2018-06-29T03:46:50.337Z,4.60
2018-06-29T03:47:50.357Z,4.10
2018-06-29T03:48:50.381Z,4.50
2018-06-29T03:49:50.400Z,4.00
2018-06-29T03:50:50.424Z,3.70
2018-06-29T03:51:50.442Z,4.50
2018-06-29T03:52:50.467Z,3.80
2018-06-29T03:53:50.490Z,4.30
2018-06-29T03:54:50.509Z,4.40
2018-06-29T03:55:50.531Z,4.10
2018-06-29T03:56:50.550Z,4.10
2018-06-29T03:57:50.572Z,4.20
2018-06-29T03:58:50.593Z,4.70
2018-06-29T03:59:50.617Z,4.00
2018-06-29T04:00:50.639Z,4.40
2018-06-29T04:01:50.659Z,4.50
2018-06-29T04:02:50.678Z,4.40
2018-06-29T04:03:50.702Z,4.60
2018-06-29T04:04:50.726Z,4.70
2018-06-29T04:05:50.745Z,4.60
2018-06-29T04:06:50.769Z,4.50
2018-06-29T04:07:50.786Z,4.10
2018-06-29T04:08:50.814Z,4.70
2018-06-29T04:09:50.834Z,5.10
2018-06-29T04:10:50.852Z,4.80
2018-06-29T04:11:50.877Z,4.00
2018-06-29T04:12:50.933Z,4.60
2018-06-29T04:13:50.920Z,4.20
2018-06-29T04:14:50.938Z,4.90
2018-06-29T04:15:50.961Z,4.70
2018-06-29T04:16:50.982Z,4.70
2018-06-29T04:17:51.024Z,4.80
2018-06-29T04:18:51.028Z,4.90
2018-06-29T04:19:51.046Z,4.40
2018-06-29T04:20:51.073Z,4.90
2018-06-29T04:21:51.090Z,5.40
2018-06-29T04:22:51.113Z,4.50
2018-06-29T04:23:51.134Z,4.80
2018-06-29T04:24:51.155Z,5.40
2018-06-29T04:25:51.177Z,4.90
2018-06-29T04:26:51.201Z,5.80
2018-06-29T04:27:51.220Z,4.90
2018-06-29T04:28:51.243Z,4.70
2018-06-29T04:29:51.263Z,5.20
2018-06-29T04:30:51.288Z,5.30
2018-06-29T04:31:51.308Z,5.00
2018-06-29T04:32:51.354Z,4.80
2018-06-29T04:33:51.353Z,4.40
2018-06-29T04:34:51.375Z,5.10
2018-06-29T04:35:51.395Z,4.80
2018-06-29T04:36:51.418Z,5.20
2018-06-29T04:37:51.437Z,4.70
2018-06-29T04:38:51.462Z,4.70
2018-06-29T04:39:51.484Z,4.80
2018-06-29T04:40:51.505Z,4.70
2018-06-29T04:41:51.524Z,4.60
2018-06-29T04:42:51.553Z,5.20
2018-06-29T04:43:51.570Z,4.70
2018-06-29T04:44:51.590Z,4.70
2018-06-29T04:45:51.615Z,5.70
2018-06-29T04:46:51.633Z,5.30
2018-06-29T04:47:51.657Z,5.30
2018-06-29T04:48:51.676Z,4.50
2018-06-29T04:49:51.699Z,5.20
2018-06-29T04:50:51.721Z,4.90
2018-06-29T04:51:51.744Z,4.80
2018-06-29T04:52:51.769Z,5.00
2018-06-29T04:53:51.790Z,5.00
2018-06-29T04:54:51.811Z,4.90
2018-06-29T04:55:51.832Z,6.10
2018-06-29T04:56:51.855Z,5.50
2018-06-29T04:57:51.877Z,5.30
2018-06-29T04:58:51.903Z,5.40
2018-06-29T04:59:51.916Z,5.30
2018-06-29T05:00:51.960Z,5.60
2018-06-29T05:01:51.964Z,6.00
2018-06-29T05:02:51.985Z,5.20
2018-06-29T05:03:52.011Z,5.50
2018-06-29T05:04:52.029Z,5.60
2018-06-29T05:05:52.062Z,5.80
2018-06-29T05:06:52.074Z,5.60
2018-06-29T05:07:52.100Z,5.80
2018-06-29T05:08:52.116Z,6.30
2018-06-29T05:09:52.144Z,5.80
2018-06-29T05:10:52.161Z,6.50
2018-06-29T05:11:52.181Z,6.00
2018-06-29T05:12:52.207Z,6.50
2018-06-29T05:13:52.229Z,8.10
2018-06-29T05:14:52.250Z,6.60
2018-06-29T05:15:52.271Z,6.70
2018-06-29T05:16:52.294Z,6.00
2018-06-29T05:17:52.316Z,6.50
2018-06-29T05:18:52.338Z,6.60
2018-06-29T05:19:52.358Z,5.70
2018-06-29T05:20:52.383Z,6.10
2018-06-29T05:21:52.403Z,6.50
2018-06-29T05:22:52.426Z,5.70
2018-06-29T05:23:52.447Z,7.90
2018-06-29T05:24:52.476Z,7.50
2018-06-29T05:25:52.492Z,6.70
2018-06-29T05:26:52.517Z,6.60
2018-06-29T05:27:52.542Z,7.10
2018-06-29T05:28:52.560Z,6.80
2018-06-29T05:29:52.583Z,6.20
2018-06-29T05:30:52.602Z,6.40
2018-06-29T05:31:52.626Z,7.20
2018-06-29T05:32:53.001Z,6.40
2018-06-29T05:33:52.671Z,6.80
2018-06-29T05:34:52.693Z,7.00
2018-06-29T05:35:52.752Z,7.00
2018-06-29T05:36:52.737Z,6.50
2018-06-29T05:37:52.760Z,6.50
2018-06-29T05:38:52.783Z,5.90
2018-06-29T05:39:52.808Z,7.00
2018-06-29T05:40:52.829Z,7.10
2018-06-29T05:41:52.852Z,6.80
2018-06-29T05:42:52.873Z,6.90
2018-06-29T05:43:52.895Z,9.20
2018-06-29T05:44:52.918Z,6.80
2018-06-29T05:45:52.938Z,6.10
2018-06-29T05:46:53.017Z,6.90
2018-06-29T05:47:52.982Z,7.20
2018-06-29T05:48:53.006Z,7.30
2018-06-29T05:49:53.030Z,6.50
2018-06-29T05:50:53.052Z,6.80
2018-06-29T05:51:53.075Z,6.40
2018-06-29T05:52:53.111Z,6.50
2018-06-29T05:53:53.120Z,5.60
2018-06-29T05:54:53.142Z,6.80
2018-06-29T05:55:53.169Z,6.50
2018-06-29T05:56:53.188Z,6.20
2018-06-29T05:57:53.214Z,6.60
2018-06-29T05:58:53.236Z,5.90
2018-06-29T05:59:53.261Z,6.20
2018-06-29T06:00:53.286Z,6.40
2018-06-29T06:01:53.332Z,6.70
2018-06-29T06:02:53.330Z,5.40
2018-06-29T06:03:53.357Z,7.00
2018-06-29T06:04:53.378Z,6.00
2018-06-29T06:05:53.402Z,5.80
2018-06-29T06:06:53.426Z,6.10
2018-06-29T06:07:53.453Z,6.40
2018-06-29T06:08:53.478Z,5.80
2018-06-29T06:09:53.501Z,6.90
2018-06-29T06:10:53.625Z,5.90
2018-06-29T06:11:53.553Z,6.20
2018-06-29T06:12:53.578Z,5.90
2018-06-29T06:13:53.604Z,6.20
2018-06-29T06:14:53.627Z,6.40
2018-06-29T06:15:53.650Z,6.30
2018-06-29T06:16:53.676Z,6.40
2018-06-29T06:17:53.704Z,6.60
2018-06-29T06:18:53.726Z,6.00
2018-06-29T06:19:53.752Z,6.10
2018-06-29T06:20:53.780Z,5.90
2018-06-29T06:21:53.846Z,5.80
2018-06-29T06:22:53.830Z,5.30
2018-06-29T06:23:53.857Z,5.40
2018-06-29T06:24:53.988Z,5.60
2018-06-29T06:25:53.916Z,5.30
2018-06-29T06:26:53.933Z,5.80
2018-06-29T06:27:53.960Z,5.60
2018-06-29T06:28:53.990Z,6.20
2018-06-29T06:29:54.015Z,5.40
2018-06-29T06:30:54.040Z,6.50
2018-06-29T06:31:54.065Z,5.10
2018-06-29T06:32:54.094Z,7.20
2018-06-29T06:33:54.120Z,5.70
2018-06-29T06:34:54.145Z,6.10
2018-06-29T06:35:54.176Z,5.60
2018-06-29T06:36:54.202Z,6.00
2018-06-29T06:37:54.227Z,5.70
2018-06-29T06:38:54.255Z,6.30
2018-06-29T06:39:54.280Z,5.60
2018-06-29T06:40:54.308Z,5.30
2018-06-29T06:41:54.336Z,5.70
2018-06-29T06:42:54.365Z,6.50
2018-06-29T06:43:54.389Z,5.80
2018-06-29T06:44:54.417Z,5.60
2018-06-29T06:45:54.444Z,5.90
2018-06-29T06:46:54.981Z,6.00
2018-06-29T06:47:54.500Z,5.80
2018-06-29T06:48:54.526Z,5.80
2018-06-29T06:49:54.555Z,5.40
2018-06-29T06:50:54.579Z,5.60
2018-06-29T06:51:54.609Z,5.90
2018-06-29T06:52:54.636Z,5.80
2018-06-29T06:53:54.661Z,6.10
2018-06-29T06:54:54.688Z,5.50
2018-06-29T06:55:54.718Z,5.30
2018-06-29T06:56:54.945Z,6.00
2018-06-29T06:57:54.771Z,5.60
2018-06-29T06:58:54.796Z,6.20
2018-06-29T06:59:54.825Z,6.60
2018-06-29T07:00:54.852Z,5.70
2018-06-29T07:01:54.883Z,5.80
2018-06-29T07:02:54.911Z,5.50
2018-06-29T07:03:54.937Z,5.60
2018-06-29T07:04:54.966Z,4.70
2018-06-29T07:05:54.997Z,5.00
2018-06-29T07:06:55.021Z,5.90
2018-06-29T07:07:55.049Z,5.80
2018-06-29T07:08:55.271Z,5.40
2018-06-29T07:09:55.119Z,5.40
2018-06-29T07:10:55.135Z,5.00
2018-06-29T07:11:55.162Z,5.20
2018-06-29T07:12:55.190Z,5.50
2018-06-29T07:13:55.214Z,4.80
2018-06-29T07:14:55.259Z,5.20
2018-06-29T07:15:55.369Z,4.70
2018-06-29T07:16:55.338Z,5.10
2018-06-29T07:17:55.332Z,5.60
2018-06-29T07:18:55.358Z,4.90
2018-06-29T07:19:55.384Z,5.30
2018-06-29T07:20:55.413Z,5.60
2018-06-29T07:21:55.630Z,5.70
2018-06-29T07:22:55.472Z,5.10
2018-06-29T07:23:55.498Z,5.40
2018-06-29T07:24:55.528Z,5.00
2018-06-29T07:25:55.555Z,5.00
2018-06-29T07:26:55.584Z,6.10
2018-06-29T07:27:55.615Z,5.20
2018-06-29T07:28:55.640Z,4.90
2018-06-29T07:29:55.725Z,4.60
2018-06-29T07:30:55.701Z,6.30
2018-06-29T07:31:55.737Z,5.50
2018-06-29T07:32:55.893Z,5.00
2018-06-29T07:33:57.481Z,4.60
2018-06-29T07:34:55.877Z,4.80
2018-06-29T07:35:55.886Z,4.50
2018-06-29T07:36:55.871Z,4.40
2018-06-29T07:37:55.963Z,5.20
2018-06-29T07:38:55.933Z,4.70
2018-06-29T07:39:55.957Z,4.90
2018-06-29T07:40:56.110Z,4.40
2018-06-29T07:41:56.014Z,4.40
2018-06-29T07:42:56.044Z,4.50
2018-06-29T07:43:56.073Z,4.60
2018-06-29T07:44:56.101Z,4.10
2018-06-29T07:45:56.129Z,3.90
2018-06-29T07:46:56.160Z,4.60
2018-06-29T07:47:56.187Z,4.10
2018-06-29T07:48:56.215Z,4.20
2018-06-29T07:49:56.243Z,4.40
2018-06-29T07:50:56.270Z,4.60
2018-06-29T07:51:56.301Z,4.00
2018-06-29T07:52:56.392Z,3.90
2018-06-29T07:53:56.358Z,4.10
2018-06-29T07:54:56.386Z,4.50
2018-06-29T07:55:56.410Z,4.00
2018-06-29T07:56:56.441Z,4.10
2018-06-29T07:57:56.469Z,4.60
2018-06-29T07:58:56.497Z,3.60
2018-06-29T07:59:56.527Z,3.80
2018-06-29T08:00:56.552Z,3.60
2018-06-29T08:01:56.584Z,3.70
2018-06-29T08:02:56.605Z,4.40
2018-06-29T08:03:56.752Z,3.10
2018-06-29T08:04:56.660Z,3.50
2018-06-29T08:05:56.689Z,3.40
2018-06-29T08:06:56.717Z,3.70
2018-06-29T08:07:56.744Z,3.20
2018-06-29T08:08:56.774Z,3.30
2018-06-29T08:09:56.848Z,3.50
2018-06-29T08:10:56.823Z,3.20
2018-06-29T08:11:56.950Z,3.40
2018-06-29T08:12:56.881Z,2.70
2018-06-29T08:13:56.928Z,3.60
2018-06-29T08:14:56.962Z,3.20
2018-06-29T08:15:56.967Z,3.60
2018-06-29T08:16:57.017Z,3.10
2018-06-29T08:17:57.016Z,3.40
2018-06-29T08:18:57.042Z,3.20
2018-06-29T08:19:57.183Z,2.70
2018-06-29T08:20:57.141Z,2.90
2018-06-29T08:21:57.172Z,5.70
2018-06-29T08:22:57.185Z,3.30
2018-06-29T08:23:57.254Z,2.70
2018-06-29T08:24:57.278Z,3.00
2018-06-29T08:25:57.261Z,2.90
2018-06-29T08:26:57.447Z,2.80
2018-06-29T08:27:57.500Z,3.00
2018-06-29T08:28:57.376Z,2.90
2018-06-29T08:29:57.485Z,3.00
2018-06-29T08:30:57.383Z,3.40
2018-06-29T08:31:57.398Z,2.70
2018-06-29T08:32:57.425Z,2.50
2018-06-29T08:33:57.453Z,3.50
2018-06-29T08:34:57.478Z,5.80
2018-06-29T08:35:57.508Z,10.40
2018-06-29T08:36:57.530Z,5.60
2018-06-29T08:37:57.558Z,2.80
2018-06-29T08:38:57.602Z,4.00
2018-06-29T08:39:57.612Z,2.50
2018-06-29T08:40:57.642Z,2.30
2018-06-29T08:41:57.669Z,2.40
2018-06-29T08:42:57.695Z,2.40
2018-06-29T08:43:57.723Z,2.70
2018-06-29T08:44:57.749Z,2.30
2018-06-29T08:45:57.774Z,2.60
2018-06-29T08:46:57.918Z,2.20
2018-06-29T08:47:57.830Z,2.20
2018-06-29T08:48:57.857Z,2.90
2018-06-29T08:49:57.883Z,2.50
2018-06-29T08:50:57.909Z,2.50
2018-06-29T08:51:57.939Z,2.70
2018-06-29T08:52:57.964Z,2.50
2018-06-29T08:53:57.995Z,2.90
2018-06-29T08:54:58.052Z,3.10
2018-06-29T08:55:58.050Z,2.60
2018-06-29T08:56:58.078Z,2.60
2018-06-29T08:57:58.104Z,2.70
2018-06-29T08:58:58.131Z,2.60
2018-06-29T08:59:58.158Z,2.20
2018-06-29T09:00:58.186Z,2.20
2018-06-29T09:01:58.214Z,2.10
2018-06-29T09:02:58.238Z,3.20
2018-06-29T09:03:58.265Z,2.70
2018-06-29T09:04:58.344Z,2.50
2018-06-29T09:05:58.320Z,3.50
2018-06-29T09:06:58.346Z,2.90
2018-06-29T09:07:58.374Z,2.50
2018-06-29T09:08:58.405Z,2.80
2018-06-29T09:09:58.429Z,2.20
2018-06-29T09:10:58.502Z,2.50
2018-06-29T09:11:58.485Z,2.40
2018-06-29T09:12:58.514Z,2.50
2018-06-29T09:13:58.540Z,2.30
2018-06-29T09:14:58.600Z,3.20
2018-06-29T09:15:58.597Z,15.90
2018-06-29T09:16:58.625Z,21.90
2018-06-29T09:17:58.652Z,16.90
2018-06-29T09:18:58.776Z,7.40
2018-06-29T09:19:58.705Z,11.70
2018-06-29T09:20:58.737Z,4.10
2018-06-29T09:21:58.762Z,6.80
2018-06-29T09:22:58.788Z,2.50
2018-06-29T09:23:58.818Z,2.90
2018-06-29T09:24:58.843Z,2.30
2018-06-29T09:25:58.991Z,2.70
2018-06-29T09:26:58.898Z,2.60
2018-06-29T09:27:58.926Z,3.50
2018-06-29T09:28:58.955Z,2.90
2018-06-29T09:29:59.002Z,2.50
2018-06-29T09:30:59.012Z,2.70
2018-06-29T09:31:59.037Z,2.20
2018-06-29T09:32:59.066Z,2.70
2018-06-29T09:33:59.092Z,2.50
2018-06-29T09:34:59.119Z,2.80
2018-06-29T09:35:59.148Z,2.70
2018-06-29T09:36:59.176Z,2.90
2018-06-29T09:37:59.205Z,2.90
2018-06-29T09:38:59.228Z,2.70
2018-06-29T09:39:59.283Z,2.40
2018-06-29T09:40:59.284Z,2.90
2018-06-29T09:41:59.313Z,2.30
2018-06-29T09:42:59.340Z,2.90
2018-06-29T09:43:59.366Z,2.70
2018-06-29T09:44:59.398Z,2.60
2018-06-29T09:45:59.424Z,2.60
2018-06-29T09:46:59.453Z,2.90
2018-06-29T09:47:59.596Z,2.20
2018-06-29T09:48:59.512Z,2.60
2018-06-29T09:49:59.533Z,2.60
2018-06-29T09:50:59.560Z,2.80
2018-06-29T09:51:59.589Z,3.00
2018-06-29T09:52:59.621Z,2.30
2018-06-29T09:53:59.691Z,2.80
2018-06-29T09:54:59.677Z,2.70
2018-06-29T09:55:59.703Z,2.60
2018-06-29T09:56:59.730Z,2.30
2018-06-29T09:57:59.759Z,2.50
2018-06-29T09:58:59.785Z,2.70
2018-06-29T09:59:59.812Z,2.60
2018-06-29T10:00:59.850Z,2.40
2018-06-29T10:01:59.867Z,2.70
2018-06-29T10:02:59.898Z,3.20
2018-06-29T10:03:59.923Z,2.30
2018-06-29T10:04:59.950Z,2.70
2018-06-29T10:05:59.978Z,2.30
2018-06-29T10:07:00.010Z,1.80
2018-06-29T10:08:00.039Z,2.80
2018-06-29T10:09:00.064Z,2.80
2018-06-29T10:10:00.290Z,2.80
2018-06-29T10:11:00.122Z,2.40
2018-06-29T10:12:00.149Z,2.70
2018-06-29T10:13:00.256Z,3.30
2018-06-29T10:14:00.230Z,2.80
2018-06-29T10:15:00.231Z,2.60
2018-06-29T10:16:00.260Z,3.50
2018-06-29T10:17:00.288Z,2.60
2018-06-29T10:18:00.313Z,2.70
2018-06-29T10:19:00.347Z,2.40
2018-06-29T10:20:00.470Z,2.60
2018-06-29T10:21:00.401Z,2.30
2018-06-29T10:22:00.430Z,2.30
2018-06-29T10:23:00.456Z,2.60
2018-06-29T10:24:00.483Z,2.30
2018-06-29T10:25:00.514Z,2.60
2018-06-29T10:26:00.741Z,2.70
2018-06-29T10:27:00.565Z,2.80
2018-06-29T10:28:00.616Z,3.40
2018-06-29T10:29:00.630Z,4.00
2018-06-29T10:30:00.651Z,11.00
2018-06-29T10:31:00.679Z,16.00
2018-06-29T10:32:00.712Z,15.20
2018-06-29T10:33:00.738Z,4.30
2018-06-29T10:34:00.764Z,2.40
2018-06-29T10:35:00.793Z,2.80
2018-06-29T10:36:00.882Z,2.30
2018-06-29T10:37:00.850Z,2.40
2018-06-29T10:38:00.878Z,2.80
2018-06-29T10:39:00.906Z,2.80
2018-06-29T10:40:00.933Z,12.70
2018-06-29T10:41:00.963Z,2.90
2018-06-29T10:42:00.991Z,9.40
2018-06-29T10:43:01.016Z,26.00
2018-06-29T10:44:01.046Z,5.10
2018-06-29T10:45:01.154Z,2.40
2018-06-29T10:46:01.102Z,2.20
2018-06-29T10:47:01.128Z,2.20
2018-06-29T10:48:01.161Z,3.20
2018-06-29T10:49:01.194Z,2.00
2018-06-29T10:50:01.215Z,2.30
2018-06-29T10:51:01.241Z,2.60
2018-06-29T10:52:01.273Z,2.50
2018-06-29T10:53:01.302Z,2.30
2018-06-29T10:54:01.328Z,2.10
2018-06-29T10:55:01.368Z,2.10
2018-06-29T10:56:01.383Z,2.20
2018-06-29T10:57:01.414Z,1.90
2018-06-29T10:58:01.441Z,2.30
2018-06-29T10:59:01.470Z,2.90
2018-06-29T11:00:01.498Z,2.20
2018-06-29T11:01:01.825Z,2.00
2018-06-29T11:02:01.553Z,2.10
2018-06-29T11:03:01.585Z,1.90
2018-06-29T11:04:01.612Z,2.10
2018-06-29T11:05:01.645Z,2.10
2018-06-29T11:06:01.728Z,2.20
2018-06-29T11:07:01.695Z,1.80
2018-06-29T11:08:01.719Z,4.60
2018-06-29T11:09:01.757Z,2.00
2018-06-29T11:10:01.785Z,2.20
2018-06-29T11:11:01.900Z,2.20
2018-06-29T11:12:02.084Z,2.80
2018-06-29T11:13:01.861Z,1.90
2018-06-29T11:14:01.889Z,2.10
2018-06-29T11:15:01.917Z,2.80
2018-06-29T11:16:01.946Z,1.90
2018-06-29T11:17:01.973Z,2.10
2018-06-29T11:18:02.003Z,2.00
2018-06-29T11:19:02.034Z,2.40
2018-06-29T11:20:02.057Z,2.20
2018-06-29T11:21:02.096Z,2.10
2018-06-29T11:22:02.117Z,2.10
2018-06-29T11:23:02.144Z,1.90
2018-06-29T11:24:02.220Z,1.80
2018-06-29T11:25:02.200Z,2.00
2018-06-29T11:26:02.229Z,1.90
2018-06-29T11:27:02.253Z,2.70
2018-06-29T11:28:02.284Z,2.20
2018-06-29T11:29:02.313Z,2.00
2018-06-29T11:30:02.342Z,2.10
2018-06-29T11:31:02.369Z,2.50
2018-06-29T11:32:02.398Z,2.30
2018-06-29T11:33:02.423Z,2.40
2018-06-29T11:34:02.456Z,1.90
2018-06-29T11:35:02.481Z,2.20
2018-06-29T11:36:02.593Z,2.40
2018-06-29T11:37:02.546Z,2.60
2018-06-29T11:38:02.568Z,2.70
2018-06-29T11:39:02.592Z,2.20
2018-06-29T11:40:02.623Z,2.50
2018-06-29T11:41:02.650Z,2.40
2018-06-29T11:42:02.683Z,2.40
2018-06-29T11:43:02.706Z,2.50
2018-06-29T11:44:02.801Z,2.10
2018-06-29T11:45:02.766Z,2.20
2018-06-29T11:46:02.791Z,2.10
2018-06-29T11:47:02.822Z,2.60
2018-06-29T11:48:02.850Z,2.90
2018-06-29T11:49:02.878Z,2.00
2018-06-29T11:50:02.908Z,2.80
2018-06-29T11:51:02.985Z,2.10
2018-06-29T11:52:02.965Z,2.10
2018-06-29T11:53:02.993Z,3.50
2018-06-29T11:54:03.023Z,22.20
2018-06-29T11:55:03.047Z,3.30
2018-06-29T11:56:03.079Z,5.00
2018-06-29T11:57:03.108Z,8.90
2018-06-29T11:58:03.137Z,3.20
2018-06-29T11:59:03.162Z,1.90
2018-06-29T12:00:03.192Z,2.60
2018-06-29T12:01:03.220Z,2.20
2018-06-29T12:02:03.256Z,2.10
2018-06-29T12:03:03.279Z,1.80
2018-06-29T12:04:03.312Z,1.80
2018-06-29T12:05:03.337Z,2.00
2018-06-29T12:06:03.363Z,2.40
2018-06-29T12:07:03.435Z,2.30
2018-06-29T12:08:03.422Z,2.10
2018-06-29T12:09:03.450Z,2.40
2018-06-29T12:10:03.480Z,2.30
2018-06-29T12:11:03.508Z,2.40
2018-06-29T12:12:03.534Z,3.60
2018-06-29T12:13:03.563Z,2.60
2018-06-29T12:14:03.595Z,3.50
2018-06-29T12:15:03.624Z,2.30
2018-06-29T12:16:03.651Z,2.50
2018-06-29T12:17:03.679Z,2.20
2018-06-29T12:18:03.706Z,2.40
2018-06-29T12:19:03.737Z,2.80
2018-06-29T12:20:03.764Z,2.50
2018-06-29T12:21:03.794Z,2.60
2018-06-29T12:22:03.821Z,2.30
2018-06-29T12:23:03.852Z,2.50
2018-06-29T12:24:03.879Z,2.70
2018-06-29T12:25:03.910Z,2.50
2018-06-29T12:26:03.939Z,2.30
2018-06-29T12:27:03.967Z,2.40
2018-06-29T12:28:04.077Z,2.20
2018-06-29T12:29:04.023Z,2.20
2018-06-29T12:30:04.053Z,2.50
2018-06-29T12:31:04.081Z,2.50
2018-06-29T12:32:04.111Z,2.60
2018-06-29T12:33:04.141Z,2.20
2018-06-29T12:34:04.170Z,2.80
2018-06-29T12:35:04.193Z,2.30
2018-06-29T12:36:04.225Z,2.30
2018-06-29T12:37:04.254Z,2.50
2018-06-29T12:38:04.396Z,2.80
2018-06-29T12:39:04.314Z,2.50
2018-06-29T12:40:04.339Z,2.50
2018-06-29T12:41:04.367Z,2.60
2018-06-29T12:42:04.394Z,2.30
2018-06-29T12:43:04.424Z,2.50
2018-06-29T12:44:04.456Z,2.40
2018-06-29T12:45:04.482Z,2.30
2018-06-29T12:46:04.539Z,2.30
2018-06-29T12:47:04.618Z,2.80
2018-06-29T12:48:04.566Z,2.10
2018-06-29T12:49:04.596Z,2.40
2018-06-29T12:50:04.626Z,2.50
2018-06-29T12:51:04.656Z,2.20
2018-06-29T12:52:04.681Z,2.20
2018-06-29T12:53:04.713Z,2.40
2018-06-29T12:54:05.045Z,2.10
2018-06-29T12:55:04.768Z,2.20
2018-06-29T12:56:04.798Z,1.80
2018-06-29T12:57:04.829Z,2.10
2018-06-29T12:58:04.857Z,2.00
2018-06-29T12:59:05.178Z,2.00
2018-06-29T13:00:04.912Z,1.80
2018-06-29T13:01:04.941Z,3.50
2018-06-29T13:02:04.970Z,2.10
2018-06-29T13:03:05.000Z,1.90
2018-06-29T13:04:05.029Z,2.30
2018-06-29T13:05:05.056Z,3.70
2018-06-29T13:06:05.087Z,3.00
2018-06-29T13:07:05.111Z,2.20
2018-06-29T13:08:05.141Z,2.10
2018-06-29T13:09:05.170Z,2.10
2018-06-29T13:10:05.202Z,2.30
2018-06-29T13:11:05.226Z,2.40
2018-06-29T13:12:05.259Z,2.20
2018-06-29T13:13:05.292Z,2.10
2018-06-29T13:14:05.323Z,2.20
2018-06-29T13:15:05.346Z,2.10
2018-06-29T13:16:05.376Z,2.20
2018-06-29T13:17:05.402Z,2.10
2018-06-29T13:18:05.443Z,2.20
2018-06-29T13:19:05.819Z,2.40